Time;durP1;ratioP1;P1;durP2;ratioP2;P2;SDS_P1;SDS_P2;PMS_P1;PMS_P2;Temp;Humidity;BMP_temperature;BMP_pressure;BME280_temperature;BME280_humidity;BME280_pressure;Samples;Min_cycle;Max_cycle;Signal;HPM_P1;HPM_P2
2022/05/02 00:00:17;;;;;;;5.40;4.90;;;;;;;9.03;90.18;96635.53;5045215;28;20196;-52
2022/05/02 00:02:44;;;;;;;5.73;5.27;;;;;;;8.96;90.72;96629.94;5044289;28;20207;-51
2022/05/02 00:05:11;;;;;;;5.50;5.03;;;;;;;8.96;90.85;96637.84;5045214;28;20212;-53
2022/05/02 00:07:39;;;;;;;5.53;5.13;;;;;;;8.96;90.73;96632.56;5045112;28;20191;-53
2022/05/02 00:10:07;;;;;;;5.70;5.13;;;;;;;8.99;90.06;96637.63;5044493;28;20238;-52
2022/05/02 00:12:33;;;;;;;5.67;5.10;;;;;;;8.87;91.74;96630.75;5044763;28;20239;-53
2022/05/02 00:15:01;;;;;;;5.53;5.03;;;;;;;8.84;92.15;96633.66;5045062;28;20621;-52
2022/05/02 00:20:09;;;;;;;5.10;4.70;;;;;;;8.89;90.29;96631.44;5043491;28;20199;-53
2022/05/02 00:22:36;;;;;;;6.60;5.50;;;;;;;8.80;92.04;96626.97;5044738;28;20203;-53
2022/05/02 00:25:05;;;;;;;5.93;5.43;;;;;;;8.75;92.60;96631.78;5044797;28;20527;-52
2022/05/02 00:27:31;;;;;;;5.97;5.47;;;;;;;8.73;93.59;96623.19;5045008;28;20210;-52
2022/05/02 00:29:58;;;;;;;6.70;5.43;;;;;;;8.72;93.33;96629.44;5043418;28;20281;-51
2022/05/02 00:32:25;;;;;;;6.23;5.73;;;;;;;8.75;92.76;96623.88;5044769;28;20207;-52
2022/05/02 00:34:51;;;;;;;6.53;6.03;;;;;;;8.75;92.82;96623.88;5044622;28;20560;-54
2022/05/02 00:37:18;;;;;;;5.67;5.23;;;;;;;8.82;92.07;96618.94;5044505;28;20323;-52
2022/05/02 00:39:45;;;;;;;6.30;5.80;;;;;;;8.77;92.52;96616.69;5044221;28;20258;-53
2022/05/02 00:42:15;;;;;;;6.17;5.67;;;;;;;8.71;93.35;96609.31;5043674;28;20299;-53
2022/05/02 00:44:43;;;;;;;6.97;6.30;;;;;;;8.73;92.51;96611.81;5043623;28;20551;-53
2022/05/02 00:47:10;;;;;;;6.47;5.97;;;;;;;8.70;93.56;96618.19;5044256;28;20659;-53
2022/05/02 00:49:37;;;;;;;7.13;6.10;;;;;;;8.67;93.59;96613.19;5043212;28;20674;-54
2022/05/02 00:52:05;;;;;;;6.40;5.90;;;;;;;8.64;94.35;96608.19;5043796;28;20207;-52
2022/05/02 00:54:32;;;;;;;6.70;6.10;;;;;;;8.66;92.98;96611.50;5044209;28;20213;-53
2022/05/02 00:56:59;;;;;;;6.47;5.97;;;;;;;8.60;93.10;96612.06;5043527;28;20671;-51
2022/05/02 00:59:27;;;;;;;6.27;5.67;;;;;;;8.63;93.09;96609.16;5043629;28;20285;-51
2022/05/02 01:01:54;;;;;;;6.93;6.40;;;;;;;8.65;94.43;96612.47;5044040;28;20582;-51
2022/05/02 01:04:21;;;;;;;7.70;7.00;;;;;;;8.67;93.33;96604.44;5044309;28;20199;-53
2022/05/02 01:09:32;;;;;;;7.20;6.50;;;;;;;8.52;93.61;96603.94;5044286;28;20244;-53
2022/05/02 01:11:59;;;;;;;7.23;6.50;;;;;;;8.53;94.44;96608.28;5043465;28;20631;-52
2022/05/02 01:14:28;;;;;;;7.00;6.50;;;;;;;8.51;94.23;96604.91;5043714;28;20214;-53
2022/05/02 01:16:54;;;;;;;7.63;6.60;;;;;;;8.55;93.35;96606.31;5033171;28;20216;-54
2022/05/02 01:19:21;;;;;;;7.17;6.57;;;;;;;8.54;94.35;96607.28;5045319;28;20192;-52
2022/05/02 01:21:51;;;;;;;7.30;6.60;;;;;;;8.59;94.86;96606.91;5045882;28;20219;-53
2022/05/02 01:24:20;;;;;;;7.77;7.07;;;;;;;8.49;94.74;96606.84;5044400;28;20203;-53
2022/05/02 01:26:46;;;;;;;7.43;6.83;;;;;;;8.45;94.22;96608.09;5043327;28;20262;-51
2022/05/02 01:29:13;;;;;;;7.73;7.10;;;;;;;8.43;93.79;96605.56;5043288;28;20230;-53
2022/05/02 01:31:39;;;;;;;7.97;6.57;;;;;;;8.47;94.81;96593.78;5043390;28;20199;-52
2022/05/02 01:34:06;;;;;;;7.83;7.17;;;;;;;8.48;94.73;96597.28;5043364;28;20207;-53
2022/05/02 01:36:33;;;;;;;7.53;6.93;;;;;;;8.48;95.80;96590.22;5043846;28;20207;-53
2022/05/02 01:39:01;;;;;;;8.27;7.53;;;;;;;8.47;95.37;96590.31;5053639;28;20207;-52
2022/05/02 01:41:27;;;;;;;7.83;7.23;;;;;;;8.41;95.04;96596.97;5057233;28;20212;-52
2022/05/02 01:43:54;;;;;;;8.47;7.67;;;;;;;8.28;95.09;96598.13;5064337;28;20199;-53
2022/05/02 01:46:20;;;;;;;8.40;7.70;;;;;;;8.36;96.15;96593.06;5059776;28;20200;-53
2022/05/02 01:48:48;;;;;;;8.27;7.57;;;;;;;8.31;95.00;96597.88;5044602;28;20228;-52
2022/05/02 01:51:15;;;;;;;8.30;7.60;;;;;;;8.33;96.47;96595.94;5053162;28;20234;-53
2022/05/02 01:53:42;;;;;;;8.80;8.00;;;;;;;8.29;97.37;96594.56;5049444;28;20574;-52
2022/05/02 01:56:10;;;;;;;8.40;7.70;;;;;;;8.29;96.86;96594.56;5047064;28;20212;-52
2022/05/02 01:58:36;;;;;;;8.63;7.70;;;;;;;8.29;96.12;96587.47;5045513;28;20213;-53
2022/05/02 02:01:04;;;;;;;9.40;8.50;;;;;;;8.28;95.83;96587.56;5046860;28;20219;-53
2022/05/02 02:03:31;;;;;;;9.23;8.23;;;;;;;8.26;96.38;96586.84;5045382;28;20207;-53
2022/05/02 02:05:58;;;;;;;9.33;8.40;;;;;;;8.28;96.99;96587.56;5033330;28;20231;-53
2022/05/02 02:08:27;;;;;;;9.13;8.27;;;;;;;8.24;95.80;96587.00;5043164;28;20225;-52
2022/05/02 02:10:56;;;;;;;8.80;7.97;;;;;;;8.29;96.85;96591.91;5043572;28;20230;-53
2022/05/02 02:13:26;;;;;;;7.93;7.23;;;;;;;8.21;95.93;96594.31;5043278;28;20211;-53
2022/05/02 02:15:53;;;;;;;8.93;8.13;;;;;;;8.23;96.45;96587.13;5042119;28;20199;-53
2022/05/02 02:18:20;;;;;;;8.47;7.70;;;;;;;8.27;95.76;96585.91;5042559;28;20196;-52
2022/05/02 02:20:48;;;;;;;9.00;8.10;;;;;;;8.23;96.45;96587.97;5042813;28;20207;-53
2022/05/02 02:23:16;;;;;;;9.10;8.20;;;;;;;8.17;96.62;96590.28;5041550;28;20199;-53
2022/05/02 02:25:43;;;;;;;7.90;7.20;;;;;;;8.22;96.14;96582.84;5042340;28;20248;-53
2022/05/02 02:28:10;;;;;;;8.70;8.00;;;;;;;8.19;96.52;96580.44;5039932;28;20230;-52
2022/05/02 02:30:39;;;;;;;7.60;7.00;;;;;;;8.16;96.44;96578.06;5041727;28;20226;-53
2022/05/02 02:33:06;;;;;;;8.70;8.00;;;;;;;8.21;96.46;96576.72;5042426;28;20211;-53
2022/05/02 02:35:33;;;;;;;7.93;7.33;;;;;;;8.25;96.14;96583.41;5030427;28;20636;-53
2022/05/02 02:37:59;;;;;;;7.80;7.20;;;;;;;8.17;97.65;96582.38;5042456;28;20208;-52
2022/05/02 02:40:26;;;;;;;8.37;7.67;;;;;;;8.10;97.66;96578.59;5041794;28;20204;-52
2022/05/02 02:42:52;;;;;;;8.63;7.83;;;;;;;8.09;96.84;96583.03;5042643;28;20206;-53
2022/05/02 02:45:22;;;;;;;9.77;8.70;;;;;;;8.05;98.03;96578.13;5041392;28;20219;-52
2022/05/02 02:47:50;;;;;;;8.83;8.13;;;;;;;8.02;97.08;96577.44;5042543;28;20261;-53
2022/05/02 02:50:16;;;;;;;9.43;8.53;;;;;;;7.99;98.09;96574.22;5041751;28;20250;-52
2022/05/02 02:52:43;;;;;;;9.17;8.27;;;;;;;8.04;97.79;96569.41;5041697;28;20664;-51
2022/05/02 02:55:09;;;;;;;9.17;8.37;;;;;;;7.97;97.54;96566.44;5042530;28;20214;-52
2022/05/02 02:57:36;;;;;;;9.67;8.77;;;;;;;7.91;97.51;96563.50;5030006;28;20366;-52
2022/05/02 03:00:03;;;;;;;9.70;8.90;;;;;;;7.89;97.98;96561.00;5041395;28;20195;-53
2022/05/02 03:02:30;;;;;;;8.80;8.07;;;;;;;7.86;97.92;96556.00;5041471;28;20535;-53
2022/05/02 03:07:46;;;;;;;10.00;9.00;;;;;;;7.83;97.71;96550.97;5046795;28;20273;-53
2022/05/02 03:10:13;;;;;;;9.80;8.97;;;;;;;7.84;98.79;96552.66;5045609;28;20322;-52
2022/05/02 03:12:40;;;;;;;10.23;9.33;;;;;;;7.80;96.88;96551.22;5041400;28;20203;-53
2022/05/02 03:15:07;;;;;;;10.00;9.10;;;;;;;7.79;98.05;96549.59;5041076;28;20203;-53
2022/05/02 03:17:34;;;;;;;10.60;9.60;;;;;;;7.78;97.94;96547.91;5040993;28;20207;-53
2022/05/02 03:20:02;;;;;;;10.30;9.30;;;;;;;7.79;98.15;96546.94;5041301;28;20207;-53
2022/05/02 03:22:28;;;;;;;10.00;9.03;;;;;;;7.71;97.38;96538.00;5041193;28;20513;-52
2022/05/02 03:24:55;;;;;;;9.93;9.03;;;;;;;7.75;98.46;96540.28;5041702;28;20274;-53
2022/05/02 03:27:22;;;;;;;10.33;9.53;;;;;;;7.72;98.25;96537.06;5040997;28;20207;-53
2022/05/02 03:29:48;;;;;;;10.27;9.27;;;;;;;7.72;99.20;96537.06;5042031;28;20220;-52
2022/05/02 03:32:15;;;;;;;11.00;10.00;;;;;;;7.71;98.60;96538.00;5045289;28;20211;-53
2022/05/02 03:34:41;;;;;;;10.80;9.80;;;;;;;7.62;98.48;96539.59;5046234;28;20199;-53
2022/05/02 03:37:09;;;;;;;10.20;9.30;;;;;;;7.70;99.37;96533.69;5046453;28;20202;-53
2022/05/02 03:39:36;;;;;;;10.43;9.50;;;;;;;7.58;98.87;96535.53;5045675;28;20195;-53
2022/05/02 03:42:03;;;;;;;10.57;9.67;;;;;;;7.60;100.00;96531.00;5048197;28;20202;-53
2022/05/02 03:44:29;;;;;;;10.77;9.77;;;;;;;7.52;98.67;96538.69;5045352;28;20222;-53
2022/05/02 03:46:56;;;;;;;10.47;9.57;;;;;;;7.56;99.05;96534.84;5044821;28;20260;-51
2022/05/02 03:49:24;;;;;;;14.83;12.13;;;;;;;7.50;98.64;96527.47;5045290;28;20209;-53
2022/05/02 03:51:51;;;;;;;11.63;10.00;;;;;;;7.45;99.68;96525.22;5045110;28;20536;-52
2022/05/02 03:54:19;;;;;;;11.30;10.13;;;;;;;7.49;100.00;96525.78;5063171;28;20191;-52
2022/05/02 03:56:47;;;;;;;11.37;10.27;;;;;;;7.47;99.17;96527.75;5065339;28;20203;-53
2022/05/02 03:59:13;;;;;;;11.00;9.87;;;;;;;7.47;99.66;96528.53;5055316;28;20199;-53
2022/05/02 04:01:41;;;;;;;11.90;10.80;;;;;;;7.48;99.12;96522.31;5045795;28;20199;-52
2022/05/02 04:04:08;;;;;;;11.03;9.97;;;;;;;7.49;99.82;96528.44;5045969;28;20228;-52
2022/05/02 04:06:34;;;;;;;12.87;11.70;;;;;;;7.46;99.22;96526.06;5045580;28;20207;-53
2022/05/02 04:09:01;;;;;;;12.47;11.20;;;;;;;7.50;99.38;96522.22;5045271;28;20195;-52
2022/05/02 04:11:29;;;;;;;12.97;11.60;;;;;;;7.53;99.23;96527.22;5030237;28;20659;-52
2022/05/02 04:13:57;;;;;;;12.37;11.20;;;;;;;7.50;99.21;96522.22;5045205;28;20207;-53
2022/05/02 04:16:23;;;;;;;12.10;11.00;;;;;;;7.49;98.87;96524.00;5045018;28;20214;-53
2022/05/02 04:18:50;;;;;;;14.20;12.47;;;;;;;7.46;99.38;96531.31;5044522;28;20222;-52
2022/05/02 04:21:16;;;;;;;15.33;13.13;;;;;;;7.51;99.76;96529.97;5044705;28;20203;-52
2022/05/02 04:23:43;;;;;;;12.33;11.23;;;;;;;7.47;99.53;96533.81;5044772;28;20200;-52
2022/05/02 04:26:09;;;;;;;12.20;11.10;;;;;;;7.59;99.01;96531.97;5044083;28;20270;-52
2022/05/02 04:28:37;;;;;;;13.03;11.73;;;;;;;7.55;99.06;96533.19;5044582;28;20203;-52
2022/05/02 04:31:05;;;;;;;13.43;12.13;;;;;;;7.62;99.99;96528.22;5044177;28;20227;-52
2022/05/02 04:33:33;;;;;;;12.53;11.33;;;;;;;7.80;98.35;96538.06;5044279;28;20563;-52
2022/05/02 04:36:01;;;;;;;13.53;12.23;;;;;;;7.92;97.96;96534.41;5044418;28;20212;-52
2022/05/02 04:38:28;;;;;;;13.77;12.47;;;;;;;8.13;97.38;96531.75;5044487;28;20206;-52
2022/05/02 04:40:58;;;;;;;12.90;11.70;;;;;;;8.43;95.56;96538.88;5033699;28;20226;-51
2022/05/02 04:43:25;;;;;;;12.97;11.77;;;;;;;8.55;94.88;96536.97;5044280;28;20212;-53
2022/05/02 04:45:54;;;;;;;13.33;11.70;;;;;;;9.16;92.73;96537.69;5044314;28;20223;-53
2022/05/02 04:48:21;;;;;;;12.97;11.60;;;;;;;9.62;88.96;96537.00;5043981;28;20214;-53
2022/05/02 04:50:47;;;;;;;12.63;11.53;;;;;;;9.54;89.17;96536.84;5045660;28;20238;-54
2022/05/02 04:53:18;;;;;;;12.20;11.10;;;;;;;9.42;90.39;96541.47;5047159;28;20218;-53
2022/05/02 04:55:45;;;;;;;11.93;10.93;;;;;;;9.45;89.72;96543.81;5058554;28;20218;-52
2022/05/02 04:58:11;;;;;;;13.83;10.77;;;;;;;9.51;90.67;96535.34;5050091;28;20280;-53
2022/05/02 05:00:38;;;;;;;12.43;11.33;;;;;;;10.00;88.42;96540.44;5044704;28;20583;-52
2022/05/02 05:03:06;;;;;;;12.70;11.40;;;;;;;10.69;84.45;96541.94;5044164;28;20195;-53
2022/05/02 05:05:33;;;;;;;12.33;11.13;;;;;;;11.11;81.20;96536.97;5043882;28;20210;-53
2022/05/02 05:07:59;;;;;;;11.53;10.43;;;;;;;11.23;81.07;96541.06;5043893;28;20213;-52
2022/05/02 05:10:26;;;;;;;11.77;10.73;;;;;;;11.29;80.53;96545.75;5043347;28;20690;-53
2022/05/02 05:13:04;;;;;;;12.70;11.50;;;;;;;11.41;80.47;96545.38;5043997;28;20206;-52
2022/05/02 05:18:36;;;;;;;11.73;10.70;;;;;;;12.35;76.71;96543.03;5043306;28;20764;-53
2022/05/02 05:21:04;;;;;;;12.53;11.27;;;;;;;12.52;75.18;96536.84;5043980;28;20191;-52
2022/05/02 05:23:49;;;;;;;12.87;11.77;;;;;;;12.74;72.29;96530.16;5043418;28;20204;-53
2022/05/02 05:26:17;;;;;;;13.40;12.10;;;;;;;12.79;74.80;96538.44;5043227;28;20206;-53
2022/05/02 05:28:57;;;;;;;12.97;11.67;;;;;;;12.93;74.11;96543.19;5043392;28;20334;-53
2022/05/02 05:31:31;;;;;;;12.93;11.83;;;;;;;13.11;73.27;96543.91;5043731;28;20646;-53
2022/05/02 05:34:10;;;;;;;13.40;12.10;;;;;;;13.58;69.57;96543.38;5043479;28;20202;-52
2022/05/02 05:36:57;;;;;;;12.93;11.73;;;;;;;13.22;71.28;96540.97;5043945;28;20206;-52
2022/05/02 05:39:30;;;;;;;13.33;12.00;;;;;;;13.08;71.43;96543.38;5044183;28;20192;-53
2022/05/02 05:42:06;;;;;;;14.13;12.80;;;;;;;12.96;71.48;96540.22;5042937;28;20640;-52
2022/05/02 05:44:45;;;;;;;13.53;12.13;;;;;;;13.28;71.20;96540.34;5043366;28;20558;-53
2022/05/02 05:47:23;;;;;;;13.13;11.90;;;;;;;13.15;71.35;96533.81;5043436;28;20535;-53
2022/05/02 05:50:03;;;;;;;13.40;12.30;;;;;;;13.05;72.80;96533.09;5030774;28;20311;-52
2022/05/02 05:52:44;;;;;;;13.50;12.30;;;;;;;13.18;74.20;96539.63;5042543;28;20225;-53
2022/05/02 05:55:17;;;;;;;14.43;12.97;;;;;;;13.18;69.69;96531.66;5043533;28;20207;-53
2022/05/02 05:57:49;;;;;;;14.00;12.73;;;;;;;13.74;70.00;96530.97;5042430;28;20635;-51
2022/05/02 06:00:16;;;;;;;14.07;12.70;;;;;;;14.32;67.88;96536.06;5043346;28;20269;-51
2022/05/02 06:03:03;;;;;;;13.83;12.63;;;;;;;14.02;67.28;96538.59;5043119;28;20207;-51
2022/05/02 06:05:35;;;;;;;17.67;13.10;;;;;;;14.17;67.53;96536.94;5043066;28;20536;-52
2022/05/02 06:08:03;;;;;;;13.37;12.17;;;;;;;14.29;65.85;96533.75;5045883;28;20184;-52
2022/05/02 06:10:30;;;;;;;13.70;12.30;;;;;;;14.57;66.47;96534.22;5065433;28;20199;-51
2022/05/02 06:12:58;;;;;;;14.33;12.77;;;;;;;14.65;65.38;96536.88;5060543;28;20211;-52
2022/05/02 06:18:31;;;;;;;14.07;12.77;;;;;;;14.97;64.40;96537.75;5043717;28;20229;-52
2022/05/02 06:21:06;;;;;;;14.03;12.93;;;;;;;15.24;62.70;96539.94;5033510;28;20204;-51
2022/05/02 06:23:36;;;;;;;12.97;11.53;;;;;;;15.55;62.55;96546.16;5042928;28;20191;-53
2022/05/02 06:26:04;;;;;;;14.27;13.07;;;;;;;15.64;59.05;96549.59;5043215;28;20207;-53
2022/05/02 06:28:32;;;;;;;13.80;12.43;;;;;;;15.55;62.12;96546.16;5044242;28;20218;-53
2022/05/02 06:31:03;;;;;;;18.40;12.73;;;;;;;15.67;63.05;96544.72;5046978;28;20231;-53
2022/05/02 06:33:31;;;;;;;13.50;12.30;;;;;;;15.89;62.20;96543.91;5042480;28;20208;-55
2022/05/02 06:36:22;;;;;;;13.57;12.37;;;;;;;15.92;60.83;96540.06;5042463;28;20239;-53
2022/05/02 06:38:53;;;;;;;14.07;12.67;;;;;;;15.98;59.13;96546.53;5041868;28;20208;-53
2022/05/02 06:41:30;;;;;;;13.37;12.17;;;;;;;16.55;57.60;96539.63;5057719;28;20626;-53
2022/05/02 06:44:05;;;;;;;15.50;12.83;;;;;;;16.63;59.22;96538.75;5043011;28;20517;-54
2022/05/02 06:46:37;;;;;;;14.07;12.67;;;;;;;16.59;59.12;96542.81;5041483;28;20219;-54
2022/05/02 06:49:05;;;;;;;14.00;12.60;;;;;;;16.81;58.36;96540.06;5041517;28;20192;-54
2022/05/02 06:51:37;;;;;;;14.67;13.27;;;;;;;16.68;56.42;96533.72;5040432;28;20243;-53
2022/05/02 06:54:13;;;;;;;13.82;12.45;;;;;;;16.34;56.79;96534.19;5042565;28;20195;-53
2022/05/02 06:56:43;;;;;;;14.38;12.95;;;;;;;16.56;57.46;96530.66;5042398;28;20223;-53
2022/05/02 06:59:32;;;;;;;14.20;12.93;;;;;;;16.80;58.62;96533.06;5042209;28;20206;-55
2022/05/02 07:02:00;;;;;;;14.00;12.60;;;;;;;16.85;59.33;96533.34;5041362;28;20215;-53
2022/05/02 07:04:36;;;;;;;13.63;12.32;;;;;;;17.23;57.33;96527.88;5041188;28;20222;-54
2022/05/02 07:07:11;;;;;;;13.52;12.13;;;;;;;17.06;55.02;96531.75;5042186;28;20265;-54
2022/05/02 07:09:42;;;;;;;13.48;12.20;;;;;;;17.34;54.40;96533.56;5030236;28;20203;-54
2022/05/02 07:12:17;;;;;;;12.82;11.80;;;;;;;17.33;53.71;96528.41;5041257;28;20216;-54
2022/05/02 07:14:56;;;;;;;12.75;11.57;;;;;;;17.50;54.33;96534.38;5042484;28;20193;-54
2022/05/02 07:17:47;;;;;;;13.07;11.88;;;;;;;17.30;54.10;96539.47;5041454;28;20213;-54
2022/05/02 07:20:18;;;;;;;12.88;11.77;;;;;;;17.29;56.37;96533.28;5042694;28;20220;-53
2022/05/02 07:23:05;;;;;;;13.10;12.00;;;;;;;17.56;55.60;96533.59;5042298;28;20192;-53
2022/05/02 07:25:32;;;;;;;13.07;11.55;;;;;;;17.30;54.59;96528.78;5042208;28;20531;-53
2022/05/02 07:28:10;;;;;;;12.98;11.68;;;;;;;17.66;54.12;96532.31;5041122;28;20207;-54
2022/05/02 07:30:39;;;;;;;12.38;11.27;;;;;;;17.50;54.41;96524.47;5041373;28;20541;-53
2022/05/02 07:33:10;;;;;;;12.60;11.57;;;;;;;17.72;54.42;96520.84;5041766;28;20227;-53
2022/05/02 07:35:38;;;;;;;13.13;11.80;;;;;;;17.51;55.28;96526.13;5029481;28;20208;-54
2022/05/02 07:38:06;;;;;;;12.55;11.48;;;;;;;17.60;54.04;96522.38;5041292;28;20203;-54
2022/05/02 07:40:35;;;;;;;12.98;11.88;;;;;;;17.81;55.02;96522.41;5041474;28;20207;-52
2022/05/02 07:43:03;;;;;;;13.68;12.48;;;;;;;17.49;54.48;96528.19;5040523;28;20537;-53
2022/05/02 07:45:31;;;;;;;13.40;12.18;;;;;;;18.00;54.31;96520.06;5041594;28;20214;-54
2022/05/02 07:48:00;;;;;;;13.10;11.93;;;;;;;18.23;53.23;96521.53;5041232;28;20215;-52
2022/05/02 07:50:28;;;;;;;12.95;11.80;;;;;;;18.10;53.42;96523.28;5023868;28;20228;-54
2022/05/02 07:52:58;;;;;;;12.25;11.23;;;;;;;18.47;52.90;96522.94;5021869;28;20219;-54
2022/05/02 07:55:29;;;;;;;12.95;11.65;;;;;;;18.28;54.17;96523.66;5021517;28;20671;-53
2022/05/02 07:57:56;;;;;;;11.45;10.45;;;;;;;18.38;52.29;96513.41;5021354;28;20203;-54
2022/05/02 08:00:24;;;;;;;12.50;11.02;;;;;;;18.03;52.83;96519.72;5020796;28;20658;-52
2022/05/02 08:02:51;;;;;;;12.48;11.30;;;;;;;18.44;54.29;96520.66;5020179;28;20294;-52
2022/05/02 08:05:19;;;;;;;11.70;10.55;;;;;;;18.56;53.96;96519.16;5021248;28;20208;-52
2022/05/02 08:07:46;;;;;;;10.43;9.52;;;;;;;18.94;51.26;96513.38;5021486;28;20212;-53
2022/05/02 08:10:55;;;;;;;11.57;10.57;;;;;;;18.88;51.63;96515.03;5022406;28;20227;-54
2022/05/02 08:13:44;;;;;;;11.90;10.52;;;;;;;18.94;51.91;96518.75;5020816;28;20205;-52
2022/05/02 08:16:16;;;;;;;12.20;10.90;;;;;;;18.88;51.81;96515.81;5024166;28;20209;-54
2022/05/02 08:18:58;;;;;;;12.15;11.05;;;;;;;18.85;52.89;96518.91;5025552;28;20211;-53
2022/05/02 08:21:31;;;;;;;12.18;11.02;;;;;;;18.78;51.66;96520.72;5025700;28;20203;-51
2022/05/02 08:27:19;;;;;;;12.02;10.93;;;;;;;19.19;51.99;96506.50;5034074;28;20192;-52
2022/05/02 08:30:04;;;;;;;12.95;11.75;;;;;;;19.34;52.01;96509.88;5034703;28;20215;-51
2022/05/02 08:32:35;;;;;;;11.52;10.52;;;;;;;19.69;51.88;96519.50;5030807;28;20220;-52
2022/05/02 08:35:04;;;;;;;11.55;10.48;;;;;;;19.81;49.75;96507.13;5032141;28;20668;-52
2022/05/02 08:37:47;;;;;;;10.60;9.60;;;;;;;19.76;48.86;96504.25;5030690;28;20633;-52
2022/05/02 08:40:22;;;;;;;10.38;9.48;;;;;;;20.05;49.80;96511.06;5028754;28;20219;-52
2022/05/02 08:43:13;;;;;;;10.65;9.68;;;;;;;19.83;50.11;96497.03;5027744;28;20214;-51
2022/05/02 08:46:09;;;;;;;10.07;9.27;;;;;;;20.40;49.31;96503.72;5025907;28;20208;-53
2022/05/02 08:52:15;;;;;;;9.30;8.60;;;;;;;20.58;47.19;96492.31;5027498;28;20227;-50
2022/05/02 08:54:58;;;;;;;10.75;9.75;;;;;;;20.22;48.74;96498.94;4998317;28;20644;-52
2022/05/02 08:57:51;;;;;;;11.68;9.88;;;;;;;20.38;47.68;96495.00;5027287;28;20200;-52
2022/05/02 09:00:28;;;;;;;10.00;8.48;;;;;;;20.79;49.53;96495.59;5030266;28;20209;-52
2022/05/02 09:03:19;;;;;;;9.00;8.30;;;;;;;21.08;45.95;96488.88;5031847;28;20246;-53
2022/05/02 09:06:06;;;;;;;9.13;8.35;;;;;;;21.21;46.61;96491.56;5030597;28;20204;-52
2022/05/02 09:09:05;;;;;;;8.77;8.05;;;;;;;21.58;45.68;96484.53;5032228;28;20230;-52
2022/05/02 09:11:45;;;;;;;9.27;8.57;;;;;;;21.98;45.33;96489.72;5018905;28;20228;-52
2022/05/02 09:14:50;;;;;;;8.63;7.85;;;;;;;21.96;45.32;96486.44;5030997;28;20197;-53
2022/05/02 09:17:41;;;;;;;9.15;8.32;;;;;;;21.70;44.02;96482.81;5029754;28;20196;-52
2022/05/02 09:20:15;;;;;;;9.32;8.52;;;;;;;21.31;45.23;96485.72;5024460;28;20208;-51
2022/05/02 09:22:54;;;;;;;10.00;9.10;;;;;;;21.10;45.00;96483.28;5024321;28;20279;-51
2022/05/02 09:25:36;;;;;;;9.98;9.07;;;;;;;21.04;43.75;96487.66;5024814;28;20511;-52
2022/05/02 09:28:04;;;;;;;9.40;8.50;;;;;;;21.41;45.60;96480.69;5025189;28;20212;-52
2022/05/02 09:31:05;;;;;;;10.30;9.13;;;;;;;20.97;43.81;96473.41;5024040;28;20204;-52
2022/05/02 09:33:36;;;;;;;8.93;8.13;;;;;;;21.08;45.45;96477.31;5028993;28;20246;-53
2022/05/02 09:36:24;;;;;;;9.80;8.90;;;;;;;20.89;46.38;96472.81;5024535;28;20623;-51
2022/05/02 09:38:54;;;;;;;9.35;8.55;;;;;;;21.07;45.28;96470.28;5024269;28;20258;-52
2022/05/02 09:41:38;;;;;;;9.77;8.98;;;;;;;20.92;46.38;96472.38;5023868;28;20243;-52
2022/05/02 09:50:14;;;;;;;8.98;8.18;;;;;;;21.59;45.53;96458.47;5028091;28;20290;-52
2022/05/02 09:52:58;;;;;;;8.93;8.20;;;;;;;21.74;43.13;96459.81;5042976;28;20211;-52
2022/05/02 09:58:38;;;;;;;8.88;8.07;;;;;;;21.20;42.53;96454.94;5014118;28;20210;-52
2022/05/02 10:01:11;;;;;;;8.23;7.45;;;;;;;21.21;43.70;96451.22;5042939;28;20201;-52
2022/05/02 10:03:40;;;;;;;7.65;6.97;;;;;;;22.05;43.58;96452.78;5042637;28;20195;-53
2022/05/02 10:06:10;;;;;;;8.05;7.35;;;;;;;21.93;42.48;96443.78;5042183;28;20215;-52
2022/05/02 10:08:50;;;;;;;8.73;7.93;;;;;;;21.73;44.75;96438.50;5042028;28;20199;-52
2022/05/02 10:11:41;;;;;;;8.05;7.45;;;;;;;21.72;43.18;96443.06;5041932;28;20612;-52
2022/05/02 10:14:35;;;;;;;8.77;7.93;;;;;;;21.45;42.99;96443.44;5042300;28;20517;-51
2022/05/02 10:17:07;;;;;;;7.97;7.38;;;;;;;21.82;42.83;96435.31;5031298;28;20603;-51
2022/05/02 10:19:49;;;;;;;8.00;7.30;;;;;;;22.30;41.88;96435.59;5041897;28;20645;-53
2022/05/02 10:22:24;;;;;;;7.25;6.75;;;;;;;22.20;41.61;96432.56;5042216;28;20195;-49
2022/05/02 10:25:02;;;;;;;7.90;7.30;;;;;;;22.38;42.06;96433.66;5042616;28;20195;-51
2022/05/02 10:27:35;;;;;;;7.20;6.57;;;;;;;22.56;41.22;96439.06;5031122;28;20207;-52
2022/05/02 10:30:11;;;;;;;7.15;6.65;;;;;;;22.68;41.13;96438.13;5041786;28;20208;-51
2022/05/02 10:32:43;;;;;;;7.72;7.13;;;;;;;22.55;41.00;96430.16;5043230;28;20307;-50
2022/05/02 10:35:11;;;;;;;7.00;6.35;;;;;;;22.78;40.04;96432.22;5042027;28;20247;-50
2022/05/02 10:37:40;;;;;;;7.60;7.00;;;;;;;22.61;38.22;96426.56;5042002;28;20227;-52
2022/05/02 10:40:13;;;;;;;7.97;7.32;;;;;;;21.94;38.67;96418.50;5041794;28;20214;-51
2022/05/02 10:42:46;;;;;;;8.15;7.35;;;;;;;22.16;41.31;96420.59;5065501;28;20211;-50
2022/05/02 10:45:15;;;;;;;7.10;6.50;;;;;;;22.36;38.57;96417.69;5051655;28;20210;-51
2022/05/02 10:47:45;;;;;;;7.13;6.63;;;;;;;22.10;39.48;96424.16;5044906;28;20212;-52
2022/05/02 10:50:19;;;;;;;5.95;5.45;;;;;;;;;;5041728;28;20239;-52
2022/05/02 10:52:55;;;;;;;5.63;5.20;;;;;;;22.87;37.80;96413.88;5041615;28;20293;-50
2022/05/02 10:55:26;;;;;;;6.03;5.63;;;;;;;22.93;39.02;96412.97;5040971;28;20206;-52
2022/05/02 10:57:54;;;;;;;6.65;6.05;;;;;;;22.85;38.69;96407.91;5042043;28;20206;-51
2022/05/02 11:00:21;;;;;;;5.55;5.15;;;;;;;23.03;37.21;96411.38;5041875;28;20306;-52
2022/05/02 11:02:59;;;;;;;4.95;4.50;;;;;;;22.74;36.01;96404.88;5043088;28;20199;-51
2022/05/02 11:05:28;;;;;;;7.32;4.65;;;;;;;22.91;36.29;96407.00;5041916;28;20204;-52
2022/05/02 11:08:09;;;;;;;5.18;4.78;;;;;;;22.14;35.63;96408.41;5041328;28;20215;-52
2022/05/02 11:10:41;;;;;;;5.30;5.00;;;;;;;22.44;36.41;96403.94;5041641;28;20503;-53
2022/05/02 11:13:12;;;;;;;4.78;4.38;;;;;;;22.63;35.73;96402.94;5042824;28;20294;-52
2022/05/02 11:15:55;;;;;;;4.93;4.63;;;;;;;22.72;38.56;96401.59;5043067;28;20227;-51
2022/05/02 11:21:24;;;;;;;5.40;4.90;;;;;;;21.45;35.67;96398.53;5041834;28;20215;-53
2022/05/02 11:24:30;;;;;;;4.20;3.80;;;;;;;22.35;38.67;96393.69;5042230;28;20590;-52
2022/05/02 11:27:02;;;;;;;5.50;4.97;;;;;;;22.29;37.42;96385.44;5025839;28;20203;-52
2022/05/02 11:29:33;;;;;;;4.82;4.22;;;;;;;22.67;37.87;96392.56;5041130;28;20222;-52
2022/05/02 11:32:04;;;;;;;4.05;3.75;;;;;;;22.56;38.39;96394.09;5041046;28;20230;-51
2022/05/02 11:34:39;;;;;;;4.15;3.85;;;;;;;22.50;35.87;96381.50;5041954;28;20195;-51
2022/05/02 11:37:08;;;;;;;4.40;4.05;;;;;;;22.15;37.69;96385.78;5040714;28;20222;-52
2022/05/02 11:39:38;;;;;;;4.57;4.18;;;;;;;21.83;37.26;96385.81;5041649;28;20215;-52
2022/05/02 11:42:14;;;;;;;4.20;3.90;;;;;;;22.06;35.40;96384.44;5040518;28;20208;-50
2022/05/02 11:44:52;;;;;;;4.20;3.80;;;;;;;22.01;34.81;96379.69;5041238;28;20206;-52
2022/05/02 11:47:26;;;;;;;4.68;3.75;;;;;;;22.19;37.28;96378.91;5040878;28;20200;-52
2022/05/02 11:50:04;;;;;;;3.92;3.72;;;;;;;22.13;36.22;96377.13;5040135;28;20819;-52
2022/05/02 11:52:32;;;;;;;3.72;3.40;;;;;;;22.37;34.87;96376.25;5044489;28;21423;-52
2022/05/02 11:54:59;;;;;;;4.28;3.60;;;;;;;22.21;34.95;96374.94;5045373;28;20351;-53
2022/05/02 11:57:36;;;;;;;3.40;3.20;;;;;;;22.20;34.92;96370.63;5045311;28;20196;-51
2022/05/02 12:00:07;;;;;;;3.58;3.33;;;;;;;22.30;35.24;96375.50;5044624;28;20772;-52
2022/05/02 12:02:55;;;;;;;3.70;3.40;;;;;;;22.56;36.81;96375.22;5045168;28;20211;-52
2022/05/02 12:05:31;;;;;;;3.63;3.42;;;;;;;22.57;33.61;96370.63;5045327;28;20300;-53
2022/05/02 12:07:59;;;;;;;3.95;3.55;;;;;;;22.72;33.15;96371.94;5045774;28;20282;-51
2022/05/02 12:10:34;;;;;;;4.78;3.40;;;;;;;23.03;31.65;96365.53;5045539;28;20204;-52
2022/05/02 12:13:03;;;;;;;4.18;3.78;;;;;;;22.69;31.98;96366.19;5044298;28;20230;-52
2022/05/02 12:15:30;;;;;;;3.50;3.30;;;;;;;23.02;33.31;96357.69;5045132;28;20190;-53
2022/05/02 12:18:03;;;;;;;3.47;3.00;;;;;;;22.79;33.52;96364.59;5044540;28;20857;-51
2022/05/02 12:20:31;;;;;;;3.30;3.05;;;;;;;22.51;32.65;96356.19;5043940;28;20204;-52
2022/05/02 12:23:01;;;;;;;4.25;3.28;;;;;;;22.57;31.93;96352.59;5044617;28;20526;-52